Time;durP1;ratioP1;P1;durP2;ratioP2;P2;SDS_P1;SDS_P2;PMS_P1;PMS_P2;Temp;Humidity;BMP_temperature;BMP_pressure;BME280_temperature;BME280_humidity;BME280_pressure;Samples;Min_cycle;Max_cycle;Signal;HPM_P1;HPM_P2
2020/12/05 00:01:31;;;;;;;36.33;21.73;;;;;;;-144.99;95.21;52541.84;5026136;28;20639;-71
2020/12/05 00:03:58;;;;;;;34.63;20.90;;;;;;;-144.99;95.07;52484.78;5026530;28;20757;-71
2020/12/05 00:06:24;;;;;;;35.10;20.60;;;;;;;-144.99;95.14;52521.47;5026467;28;21185;-69
2020/12/05 00:08:50;;;;;;;40.70;25.67;;;;;;;-144.99;95.41;52517.41;5027732;28;20723;-67
2020/12/05 00:11:24;;;;;;;30.80;19.77;;;;;;;-144.99;95.84;52545.94;5016689;28;20868;-67
2020/12/05 00:13:50;;;;;;;34.00;22.87;;;;;;;-144.99;95.72;52562.25;5026837;28;20652;-70
2020/12/05 00:16:16;;;;;;;34.10;21.73;;;;;;;-144.99;96.42;52517.41;5026150;28;20762;-69
2020/12/05 00:18:42;;;;;;;32.40;19.97;;;;;;;-144.99;96.49;52537.78;5026353;28;20744;-69
2020/12/05 00:21:09;;;;;;;25.17;17.87;;;;;;;-144.99;96.40;52545.94;5025463;28;20637;-68
2020/12/05 00:23:35;;;;;;;25.70;18.80;;;;;;;-144.99;96.47;52529.63;5025540;28;20617;-69
2020/12/05 00:26:01;;;;;;;25.97;18.20;;;;;;;-144.99;96.37;52574.47;5025984;28;21279;-69
2020/12/05 00:28:27;;;;;;;32.80;19.40;;;;;;;-144.99;96.08;52570.38;5026497;28;20609;-68
2020/12/05 00:30:53;;;;;;;25.83;19.30;;;;;;;-144.99;95.95;52537.78;5026126;28;20624;-68
2020/12/05 00:33:19;;;;;;;27.00;18.90;;;;;;;-144.99;96.33;52576.50;5025024;28;20639;-68
2020/12/05 00:35:48;;;;;;;27.87;20.33;;;;;;;-144.99;96.02;52521.47;5027034;28;20667;-67
2020/12/05 00:38:15;;;;;;;25.53;17.53;;;;;;;-144.99;96.06;52537.78;5027263;28;20687;-68
2020/12/05 00:40:41;;;;;;;21.37;16.77;;;;;;;-144.99;95.96;52529.63;5027741;28;20660;-68
2020/12/05 00:43:09;;;;;;;25.33;17.10;;;;;;;-144.99;96.00;52517.41;5026433;28;20625;-68
2020/12/05 00:45:35;;;;;;;25.47;18.10;;;;;;;-144.99;96.05;52574.47;5025935;28;20652;-68
2020/12/05 00:48:01;;;;;;;23.50;17.83;;;;;;;-144.99;96.09;52550.00;5025860;28;21196;-69
2020/12/05 00:50:28;;;;;;;26.17;16.43;;;;;;;-144.99;96.05;52513.31;5026162;28;20831;-68
2020/12/05 00:52:54;;;;;;;24.77;19.00;;;;;;;-144.99;96.13;52525.56;5025542;28;20665;-68
2020/12/05 00:55:21;;;;;;;26.00;18.43;;;;;;;-144.99;96.16;52566.31;5025487;28;20767;-69
2020/12/05 00:57:47;;;;;;;22.97;16.97;;;;;;;-144.99;96.38;52550.00;5025052;28;20772;-69
2020/12/05 01:00:15;;;;;;;24.30;16.23;;;;;;;-144.99;96.43;52513.31;5025847;28;20636;-68
2020/12/05 01:02:42;;;;;;;26.17;18.70;;;;;;;-144.99;96.44;52533.69;5025647;28;21010;-67
2020/12/05 01:05:08;;;;;;;23.63;17.40;;;;;;;-144.99;96.83;52554.09;5023177;28;20651;-69
2020/12/05 01:07:34;;;;;;;24.07;17.23;;;;;;;-144.99;96.58;52499.06;5025730;28;20656;-67
2020/12/05 01:10:00;;;;;;;25.43;17.33;;;;;;;-144.99;97.12;52558.16;5024577;28;20660;-67
2020/12/05 01:12:27;;;;;;;24.03;18.60;;;;;;;-144.99;96.94;52529.63;5025582;28;20715;-69
2020/12/05 01:14:53;;;;;;;32.47;20.00;;;;;;;-144.99;97.23;52525.56;5025553;28;20744;-69
2020/12/05 01:17:24;;;;;;;23.43;17.93;;;;;;;-144.99;97.27;52533.69;5026383;28;20666;-69
2020/12/05 01:19:52;;;;;;;26.23;19.37;;;;;;;-144.99;97.24;52554.09;5025589;28;20732;-68
2020/12/05 01:22:19;;;;;;;25.33;17.27;;;;;;;-144.99;97.20;52545.94;5019179;28;20699;-67
2020/12/05 01:24:46;;;;;;;27.13;18.13;;;;;;;-144.99;97.04;52558.16;5029301;28;20636;-67
2020/12/05 01:27:12;;;;;;;25.33;16.97;;;;;;;-144.99;97.15;52533.69;5029262;28;20648;-67
2020/12/05 01:29:39;;;;;;;25.40;18.57;;;;;;;-144.99;97.04;52550.00;5028624;28;20663;-67
2020/12/05 01:32:05;;;;;;;25.87;17.63;;;;;;;-144.99;97.02;52578.53;5029255;28;20725;-68
2020/12/05 01:34:31;;;;;;;29.37;20.23;;;;;;;-144.99;97.04;52505.16;5026776;28;20621;-67
2020/12/05 01:36:57;;;;;;;38.77;21.97;;;;;;;-144.99;97.39;52566.31;5025490;28;21249;-67
2020/12/05 01:39:23;;;;;;;27.63;18.27;;;;;;;-144.99;97.20;52574.47;5028768;28;21134;-67
2020/12/05 01:41:51;;;;;;;32.70;22.23;;;;;;;-144.99;97.50;52545.94;5029442;28;20643;-68
2020/12/05 01:44:17;;;;;;;34.53;22.33;;;;;;;-144.99;97.88;52537.78;5022630;28;21023;-68
2020/12/05 01:46:47;;;;;;;55.10;27.60;;;;;;;-144.99;98.03;52537.78;5029371;28;21060;-68
2020/12/05 01:49:16;;;;;;;30.77;23.90;;;;;;;-144.99;97.77;52543.91;5028688;28;20672;-67
2020/12/05 01:51:42;;;;;;;30.53;22.03;;;;;;;-144.99;97.57;52541.84;5029274;28;21038;-67
2020/12/05 01:54:10;;;;;;;39.37;21.87;;;;;;;-144.99;97.78;52527.59;5029028;28;20716;-67
2020/12/05 01:56:36;;;;;;;35.83;23.03;;;;;;;-144.99;97.86;52545.94;5028669;28;20771;-67
2020/12/05 01:59:03;;;;;;;34.83;24.60;;;;;;;-144.99;98.09;52594.84;4682508;28;10000502;-67
2020/12/05 02:01:29;;;;;;;23.70;19.80;;;;;;;-144.99;97.83;52554.09;5028009;28;20711;-67
2020/12/05 02:03:57;;;;;;;30.87;21.20;;;;;;;-144.99;97.68;52562.25;5029005;28;21157;-67
2020/12/05 02:06:46;;;;;;;31.67;20.10;;;;;;;-144.99;97.62;52529.63;5028658;28;20725;-67
2020/12/05 02:09:16;;;;;;;28.00;22.17;;;;;;;-144.99;97.71;52566.31;5027620;28;21382;-66
2020/12/05 02:11:51;;;;;;;26.77;18.53;;;;;;;-144.99;97.75;52513.31;5029571;28;20628;-67
2020/12/05 02:14:21;;;;;;;23.93;17.53;;;;;;;-144.99;97.85;52550.00;5022176;28;20723;-66
2020/12/05 02:16:49;;;;;;;29.57;23.23;;;;;;;-144.99;97.93;52562.25;5031439;28;21067;-67
2020/12/05 02:19:19;;;;;;;37.83;19.87;;;;;;;-144.99;98.25;52537.78;5031077;28;21171;-66
2020/12/05 02:21:48;;;;;;;28.97;21.40;;;;;;;-144.99;98.23;52568.34;5030756;28;20664;-66
2020/12/05 02:24:15;;;;;;;44.93;26.97;;;;;;;-144.99;98.32;52566.31;5031637;28;20643;-67
2020/12/05 02:26:43;;;;;;;46.77;25.33;;;;;;;-144.99;98.37;52562.25;5030710;28;20654;-66
2020/12/05 02:29:10;;;;;;;30.03;22.80;;;;;;;-144.99;98.26;52554.09;5030701;28;20636;-65
2020/12/05 02:31:37;;;;;;;36.77;22.53;;;;;;;-144.99;98.33;52541.84;5030951;28;20741;-67
2020/12/05 02:34:03;;;;;;;31.27;21.43;;;;;;;-144.99;98.30;52541.84;5031148;28;20672;-66
2020/12/05 02:36:34;;;;;;;28.67;21.53;;;;;;;-144.99;98.43;52533.69;5030330;28;20763;-66
2020/12/05 02:39:03;;;;;;;36.03;24.07;;;;;;;-144.99;98.35;52545.94;5031550;28;20792;-67
2020/12/05 02:41:36;;;;;;;28.00;21.43;;;;;;;-144.99;98.34;52566.31;5028639;28;21016;-67
2020/12/05 02:44:02;;;;;;;41.40;27.63;;;;;;;-144.99;98.65;52574.47;5031502;28;20707;-67
2020/12/05 02:46:28;;;;;;;39.17;23.60;;;;;;;-144.99;98.47;52533.69;5030844;28;20763;-67
2020/12/05 02:48:54;;;;;;;38.03;26.07;;;;;;;-144.99;98.79;52570.38;5030378;28;20648;-67
2020/12/05 02:51:21;;;;;;;31.07;22.70;;;;;;;-144.99;98.79;52529.63;5030051;28;20715;-66
2020/12/05 02:53:47;;;;;;;47.10;26.93;;;;;;;-144.99;99.09;52552.03;5031107;28;20665;-67
2020/12/05 02:56:16;;;;;;;54.33;31.03;;;;;;;-144.99;99.60;52541.84;5029602;28;21112;-67
2020/12/05 02:58:43;;;;;;;31.03;22.30;;;;;;;-144.99;99.13;52556.13;5030565;28;20728;-67
2020/12/05 03:01:09;;;;;;;69.97;40.13;;;;;;;-144.99;99.73;52574.47;5029484;28;20682;-68
2020/12/05 03:03:39;;;;;;;47.40;28.57;;;;;;;-144.99;99.45;52529.63;5029969;28;20616;-68
2020/12/05 03:06:05;;;;;;;61.77;34.13;;;;;;;-144.99;99.71;52543.91;5030596;28;20659;-68
2020/12/05 03:08:31;;;;;;;47.33;28.87;;;;;;;-144.99;99.58;52537.78;5030610;28;20636;-66
2020/12/05 03:10:57;;;;;;;44.67;27.60;;;;;;;-144.99;99.44;52554.09;5030140;28;20625;-67
2020/12/05 03:13:23;;;;;;;46.13;27.43;;;;;;;-144.99;99.64;52543.91;5030193;28;20648;-67
2020/12/05 03:15:50;;;;;;;39.33;25.13;;;;;;;-144.99;99.43;52531.66;5029919;28;20648;-67
2020/12/05 03:18:16;;;;;;;46.93;26.80;;;;;;;-144.99;99.45;52558.16;5030096;28;20755;-67
2020/12/05 03:20:42;;;;;;;61.67;34.20;;;;;;;-144.99;99.71;52570.38;5030207;28;20708;-67
2020/12/05 03:23:09;;;;;;;51.33;32.37;;;;;;;-144.99;99.88;52531.66;5030051;28;20624;-68
2020/12/05 03:25:35;;;;;;;61.10;35.23;;;;;;;-144.99;99.95;52550.00;5030688;28;21289;-68
2020/12/05 03:28:01;;;;;;;53.83;30.37;;;;;;;-144.99;99.49;52564.28;5030282;28;20724;-68
2020/12/05 03:30:27;;;;;;;35.73;24.90;;;;;;;-144.99;99.12;52550.00;5029492;28;20644;-68
2020/12/05 03:32:55;;;;;;;40.37;25.87;;;;;;;-144.99;99.19;52541.84;5029288;28;20656;-68
2020/12/05 03:35:21;;;;;;;40.93;24.53;;;;;;;-144.99;99.01;52545.94;5022250;28;20652;-68
2020/12/05 03:37:47;;;;;;;37.37;25.43;;;;;;;-144.99;98.89;52547.97;5029342;28;20746;-68
2020/12/05 03:40:13;;;;;;;32.23;23.80;;;;;;;-144.99;98.77;52572.44;5029580;28;20716;-67
2020/12/05 03:42:39;;;;;;;38.80;23.03;;;;;;;-144.99;98.71;52545.94;5029624;28;20736;-69
2020/12/05 03:45:06;;;;;;;37.73;24.50;;;;;;;-144.99;98.81;52554.09;5028655;28;21312;-67
2020/12/05 03:47:32;;;;;;;34.80;25.33;;;;;;;-144.99;98.73;52501.09;5029798;28;20648;-67
2020/12/05 03:49:59;;;;;;;37.33;25.47;;;;;;;-144.99;98.86;52545.94;5029948;28;20627;-67
2020/12/05 03:52:25;;;;;;;45.67;26.73;;;;;;;-144.99;98.63;52537.78;5029106;28;21197;-66
2020/12/05 03:54:52;;;;;;;41.60;24.53;;;;;;;-144.99;98.79;52562.25;5029626;28;20791;-67
2020/12/05 03:57:18;;;;;;;41.43;26.73;;;;;;;-144.99;98.63;52541.84;5025321;28;20751;-67
2020/12/05 03:59:44;;;;;;;30.60;22.73;;;;;;;-144.99;98.79;52529.63;5029052;28;20668;-67
2020/12/05 04:02:10;;;;;;;36.63;22.97;;;;;;;-144.99;98.79;52525.56;5028906;28;20755;-67
2020/12/05 04:04:36;;;;;;;38.43;24.50;;;;;;;-144.99;98.79;52550.00;5029596;28;21089;-67
2020/12/05 04:07:04;;;;;;;41.03;27.33;;;;;;;-144.99;98.81;52574.47;5029141;28;20741;-67
2020/12/05 04:09:30;;;;;;;36.30;22.70;;;;;;;-144.99;98.76;52525.56;5022420;28;20651;-67
2020/12/05 04:11:56;;;;;;;53.80;30.70;;;;;;;-144.99;99.01;52562.25;5029020;28;20683;-67
2020/12/05 04:14:23;;;;;;;44.73;29.03;;;;;;;-144.99;98.88;52541.84;5029507;28;20998;-66
2020/12/05 04:16:49;;;;;;;38.40;24.80;;;;;;;-144.99;98.86;52550.00;5028830;28;21252;-68
2020/12/05 04:19:15;;;;;;;41.87;24.63;;;;;;;-144.99;98.75;52509.25;5028966;28;20644;-66
2020/12/05 04:21:41;;;;;;;39.10;24.73;;;;;;;-144.99;98.68;52558.16;5028727;28;20668;-68
2020/12/05 04:24:08;;;;;;;39.60;26.47;;;;;;;-144.99;98.72;52574.47;5029011;28;20625;-68
2020/12/05 04:26:34;;;;;;;33.43;21.73;;;;;;;-144.99;98.80;52550.00;5028398;28;20683;-68
2020/12/05 04:29:00;;;;;;;31.87;23.30;;;;;;;-144.99;98.71;52533.69;5028630;28;20663;-68
2020/12/05 04:31:27;;;;;;;32.73;23.40;;;;;;;-144.99;98.67;52501.09;5027808;28;21012;-67
2020/12/05 04:33:53;;;;;;;32.37;22.57;;;;;;;-144.99;98.72;52533.69;5028811;28;21166;-68
2020/12/05 04:36:19;;;;;;;33.57;23.07;;;;;;;-144.99;98.56;52523.50;5028944;28;20671;-67
2020/12/05 04:38:45;;;;;;;35.03;24.60;;;;;;;-144.99;98.56;52517.41;5028117;28;20608;-67
2020/12/05 04:41:12;;;;;;;33.60;23.00;;;;;;;-144.99;98.51;52501.09;5028331;28;20625;-67
2020/12/05 04:43:38;;;;;;;31.03;20.73;;;;;;;-144.99;98.56;52531.66;5028934;28;20629;-67
2020/12/05 04:46:04;;;;;;;34.63;22.90;;;;;;;-144.99;98.51;52550.00;5027952;28;21256;-69
2020/12/05 04:48:34;;;;;;;29.17;21.00;;;;;;;-144.99;98.54;52525.56;5028620;28;20896;-67
2020/12/05 04:51:03;;;;;;;33.80;22.47;;;;;;;-144.99;98.61;52566.31;5027992;28;20645;-67
2020/12/05 04:53:31;;;;;;;31.37;23.17;;;;;;;-144.99;98.44;52527.59;5028536;28;20667;-67
2020/12/05 04:55:58;;;;;;;33.00;24.97;;;;;;;-144.99;98.47;52505.16;5029441;28;20705;-66
2020/12/05 04:58:25;;;;;;;39.63;24.27;;;;;;;-144.99;98.35;52541.84;5032259;28;20659;-66
2020/12/05 05:00:53;;;;;;;41.33;25.03;;;;;;;-144.99;98.38;52509.25;5031855;28;20687;-66
2020/12/05 05:03:21;;;;;;;49.27;27.20;;;;;;;-144.99;98.52;52517.41;5024668;28;20612;-66
2020/12/05 05:05:48;;;;;;;36.13;22.23;;;;;;;-144.99;98.44;52537.78;5032876;28;21023;-67
2020/12/05 05:08:15;;;;;;;36.10;24.23;;;;;;;-144.99;98.53;52541.84;5033004;28;21196;-67
2020/12/05 05:10:41;;;;;;;41.17;25.87;;;;;;;-144.99;98.69;52537.78;5032876;28;20624;-66
2020/12/05 05:13:14;;;;;;;39.27;23.17;;;;;;;-144.99;98.77;52525.56;5032784;28;20655;-66
2020/12/05 05:15:42;;;;;;;36.13;25.37;;;;;;;-144.99;98.59;52539.81;5031436;28;20684;-67
2020/12/05 05:18:09;;;;;;;28.97;21.27;;;;;;;-144.99;98.55;52550.00;5032000;28;20672;-67
2020/12/05 05:20:39;;;;;;;32.10;23.13;;;;;;;-144.99;98.60;52554.09;5032767;28;20736;-67
2020/12/05 05:23:22;;;;;;;32.23;22.03;;;;;;;-144.99;98.58;52562.25;5031941;28;20628;-67
2020/12/05 05:25:51;;;;;;;35.03;23.13;;;;;;;-144.99;98.61;52543.91;5031817;28;20755;-67
2020/12/05 05:28:27;;;;;;;35.90;23.13;;;;;;;-144.99;98.64;52574.47;5029344;28;20637;-66
2020/12/05 05:31:00;;;;;;;35.67;25.30;;;;;;;-144.99;98.71;52566.31;5032100;28;20643;-67
2020/12/05 05:33:27;;;;;;;35.00;25.27;;;;;;;-144.99;98.81;52519.44;5032046;28;20620;-67
2020/12/05 05:35:53;;;;;;;35.57;24.20;;;;;;;-144.99;98.81;52541.84;5032129;28;20962;-67
2020/12/05 05:38:23;;;;;;;35.60;24.90;;;;;;;-144.99;98.92;52556.13;5031616;28;20747;-67
2020/12/05 05:40:51;;;;;;;36.23;23.83;;;;;;;-144.99;98.82;52541.84;5031386;28;20617;-67
2020/12/05 05:43:18;;;;;;;43.67;29.73;;;;;;;-144.99;99.02;52550.00;5031649;28;20625;-67
2020/12/05 05:45:45;;;;;;;45.97;27.37;;;;;;;-144.99;99.20;52547.97;5031472;28;20645;-67
2020/12/05 05:48:13;;;;;;;38.83;26.53;;;;;;;-144.99;99.07;52517.41;5031844;28;20625;-68
2020/12/05 05:50:39;;;;;;;38.93;25.33;;;;;;;-144.99;99.06;52586.69;5031759;28;20716;-69
2020/12/05 05:53:07;;;;;;;40.37;26.43;;;;;;;-144.99;98.98;52554.09;5031361;28;20707;-69
2020/12/05 05:55:41;;;;;;;35.47;21.33;;;;;;;-144.99;99.01;52517.41;5031144;28;20751;-68
2020/12/05 05:58:08;;;;;;;36.03;23.70;;;;;;;-144.99;98.96;52499.06;5031908;28;20771;-68
2020/12/05 06:00:40;;;;;;;39.27;24.97;;;;;;;-144.99;99.16;52550.00;5031299;28;21117;-68
2020/12/05 06:03:18;;;;;;;38.07;25.80;;;;;;;-144.99;99.00;52554.09;5031852;28;20624;-68
2020/12/05 06:05:46;;;;;;;39.97;26.33;;;;;;;-144.99;99.42;52566.31;5031160;28;20702;-68
2020/12/05 06:08:17;;;;;;;58.57;33.50;;;;;;;-144.99;99.98;52525.56;5032369;28;20786;-67
2020/12/05 06:10:47;;;;;;;42.10;29.27;;;;;;;-144.99;100.00;52509.25;5031394;28;20633;-67
2020/12/05 06:13:17;;;;;;;48.13;30.77;;;;;;;-144.99;99.99;52564.28;5031418;28;20660;-68
2020/12/05 06:15:45;;;;;;;35.27;24.63;;;;;;;-144.99;100.00;52505.16;5030760;28;21312;-68
2020/12/05 06:18:12;;;;;;;33.87;23.03;;;;;;;-144.99;100.00;52521.47;5030777;28;20688;-67
2020/12/05 06:20:43;;;;;;;36.20;27.57;;;;;;;-144.99;100.00;52525.56;5031336;28;20656;-67
2020/12/05 06:23:16;;;;;;;33.60;25.83;;;;;;;-144.99;100.00;52521.47;5030714;28;20648;-67
2020/12/05 06:25:47;;;;;;;40.30;24.43;;;;;;;-144.99;100.00;52541.84;5030919;28;20683;-67
2020/12/05 06:28:14;;;;;;;38.27;25.47;;;;;;;-144.99;100.00;52521.47;5030698;28;20703;-66
2020/12/05 06:30:45;;;;;;;35.23;26.00;;;;;;;-144.99;100.00;52533.69;5030373;28;21060;-67
2020/12/05 06:33:11;;;;;;;34.87;26.10;;;;;;;-144.99;100.00;52562.25;5029953;28;20616;-67
2020/12/05 06:35:37;;;;;;;39.10;24.33;;;;;;;-144.99;100.00;52547.97;5030885;28;20648;-68
2020/12/05 06:38:04;;;;;;;41.00;28.27;;;;;;;-144.99;100.00;52529.63;5030641;28;20699;-68
2020/12/05 06:40:39;;;;;;;35.93;27.03;;;;;;;-144.99;100.00;52521.47;5030810;28;20647;-68
2020/12/05 06:43:12;;;;;;;40.07;23.97;;;;;;;-144.99;100.00;52550.00;5031008;28;20980;-68
2020/12/05 06:45:40;;;;;;;41.43;27.70;;;;;;;-144.99;100.00;52554.09;5030509;28;20656;-68
2020/12/05 06:48:32;;;;;;;36.50;25.47;;;;;;;-144.99;100.00;52558.16;5030955;28;20712;-68
2020/12/05 06:50:59;;;;;;;36.23;25.77;;;;;;;-144.99;100.00;52505.16;5030463;28;20975;-68
2020/12/05 06:53:30;;;;;;;45.37;28.93;;;;;;;-144.99;100.00;52541.84;5030802;28;20728;-68
2020/12/05 06:55:58;;;;;;;34.70;24.07;;;;;;;-144.99;100.00;52550.00;5029971;28;20751;-67
2020/12/05 06:58:25;;;;;;;39.57;25.90;;;;;;;-144.99;100.00;52558.16;5030766;28;20684;-68
2020/12/05 07:00:52;;;;;;;36.20;25.90;;;;;;;-144.99;100.00;52541.84;5029980;28;20639;-68
2020/12/05 07:03:25;;;;;;;38.97;27.53;;;;;;;-144.99;100.00;52550.00;5022691;28;20656;-67
2020/12/05 07:05:51;;;;;;;36.37;25.23;;;;;;;-144.99;100.00;52552.03;5029937;28;20647;-68
2020/12/05 07:08:29;;;;;;;35.53;24.87;;;;;;;-144.99;100.00;52570.38;5023535;28;20652;-68
2020/12/05 07:10:58;;;;;;;38.00;26.33;;;;;;;-144.99;100.00;52533.69;5027123;28;21046;-68
2020/12/05 07:13:27;;;;;;;36.23;26.20;;;;;;;-144.99;100.00;52554.09;5030082;28;20621;-68
2020/12/05 07:16:09;;;;;;;41.27;28.70;;;;;;;-144.99;100.00;52562.25;5029701;28;20703;-68
2020/12/05 07:18:38;;;;;;;40.20;28.57;;;;;;;-144.99;100.00;52541.84;5030082;28;20680;-68
2020/12/05 07:21:05;;;;;;;41.70;27.40;;;;;;;-144.99;100.00;52574.47;5029651;28;20724;-68
2020/12/05 07:23:32;;;;;;;38.20;25.87;;;;;;;-144.99;100.00;52558.16;5030028;28;20732;-68
2020/12/05 07:25:59;;;;;;;55.43;35.47;;;;;;;-144.99;100.00;52521.47;5029654;28;20727;-68
2020/12/05 07:28:25;;;;;;;81.23;40.33;;;;;;;-144.99;100.00;52519.44;5030550;28;20648;-68
2020/12/05 07:30:51;;;;;;;44.20;29.80;;;;;;;-144.99;100.00;52541.84;5029470;28;20621;-67
2020/12/05 07:33:20;;;;;;;46.93;30.10;;;;;;;-144.99;100.00;52537.78;5029415;28;20770;-68
2020/12/05 07:35:47;;;;;;;46.60;29.13;;;;;;;-144.99;100.00;52541.84;5030100;28;20644;-69
2020/12/05 07:38:15;;;;;;;48.80;32.50;;;;;;;-144.99;100.00;52529.63;5035643;28;20645;-69
2020/12/05 07:40:42;;;;;;;44.43;29.50;;;;;;;-144.99;100.00;52554.09;5029594;28;20617;-69
2020/12/05 07:43:16;;;;;;;42.17;29.57;;;;;;;-144.99;100.00;52509.25;5029932;28;20720;-67
2020/12/05 07:45:42;;;;;;;44.47;30.43;;;;;;;-144.99;100.00;52541.84;5029251;28;20643;-68
2020/12/05 07:48:13;;;;;;;43.10;26.47;;;;;;;-144.99;100.00;52511.28;5029474;28;20720;-68
2020/12/05 07:50:39;;;;;;;39.37;26.23;;;;;;;-144.99;100.00;52517.41;5030021;28;20716;-69
2020/12/05 07:53:18;;;;;;;39.77;27.17;;;;;;;-144.99;100.00;52533.69;5030708;28;20656;-69
2020/12/05 07:55:45;;;;;;;39.80;27.00;;;;;;;-144.99;100.00;52537.78;5030472;28;20743;-69
2020/12/05 07:58:11;;;;;;;41.07;26.53;;;;;;;-144.99;100.00;52529.63;5029758;28;20747;-69
2020/12/05 08:00:37;;;;;;;44.70;29.57;;;;;;;-144.99;100.00;52531.66;5030121;28;20686;-67
2020/12/05 08:03:24;;;;;;;38.70;27.03;;;;;;;-144.99;100.00;52513.31;5029850;28;20708;-68
2020/12/05 08:05:55;;;;;;;37.10;26.73;;;;;;;-144.99;100.00;52578.53;5030098;28;20752;-69
2020/12/05 08:08:28;;;;;;;40.73;26.53;;;;;;;-144.99;100.00;52541.84;5023314;28;20669;-69
2020/12/05 08:11:00;;;;;;;42.40;29.53;;;;;;;-144.99;100.00;52511.28;5032797;28;21053;-68
2020/12/05 08:13:28;;;;;;;41.00;27.37;;;;;;;-144.99;100.00;52488.84;5031001;28;21164;-69
2020/12/05 08:16:02;;;;;;;46.77;31.90;;;;;;;-144.99;100.00;52529.63;5029340;28;20735;-69
2020/12/05 08:18:29;;;;;;;38.20;26.00;;;;;;;-144.99;100.00;52550.00;5029118;28;20652;-68
2020/12/05 08:20:55;;;;;;;34.53;25.23;;;;;;;-144.99;100.00;52529.63;5029726;28;21232;-70
2020/12/05 08:23:23;;;;;;;40.00;28.13;;;;;;;-144.99;100.00;52525.56;5028921;28;21089;-69
2020/12/05 08:25:51;;;;;;;41.37;26.50;;;;;;;-144.99;100.00;52545.94;5028797;28;20656;-69
2020/12/05 08:28:20;;;;;;;41.03;26.90;;;;;;;-144.99;100.00;52521.47;5027350;28;20621;-70
2020/12/05 08:30:48;;;;;;;39.83;27.87;;;;;;;-144.99;100.00;52550.00;5028041;28;20664;-70
2020/12/05 08:33:15;;;;;;;43.20;26.97;;;;;;;-144.99;100.00;52545.94;5028978;28;20783;-72
2020/12/05 08:35:42;;;;;;;39.47;26.73;;;;;;;-144.99;100.00;52562.25;5029412;28;20755;-70
2020/12/05 08:38:10;;;;;;;37.20;26.17;;;;;;;-144.99;100.00;52541.84;5028598;28;20679;-71
2020/12/05 08:40:37;;;;;;;41.23;27.20;;;;;;;-144.99;100.00;52513.31;5029164;28;20727;-71
2020/12/05 08:43:03;;;;;;;35.73;26.77;;;;;;;-144.99;100.00;52517.41;5029095;28;20672;-70
2020/12/05 08:45:30;;;;;;;39.13;31.53;;;;;;;-144.99;100.00;52513.31;5029673;28;20744;-71
2020/12/05 08:47:57;;;;;;;43.10;31.17;;;;;;;-144.99;100.00;52529.63;5029650;28;20846;-71
2020/12/05 08:50:29;;;;;;;43.57;28.13;;;;;;;-144.99;100.00;52537.78;5029337;28;20659;-70
2020/12/05 08:52:58;;;;;;;41.83;28.87;;;;;;;-144.99;99.74;52533.69;5026832;28;20625;-71
2020/12/05 08:55:26;;;;;;;40.57;28.73;;;;;;;-144.99;99.76;52537.78;5028145;28;20763;-72
2020/12/05 08:57:53;;;;;;;39.80;27.73;;;;;;;-144.99;99.74;52537.78;5028940;28;21077;-72
2020/12/05 09:00:20;;;;;;;46.03;27.17;;;;;;;-144.99;99.72;52505.16;5032012;28;20739;-70
2020/12/05 09:02:47;;;;;;;41.40;28.63;;;;;;;-144.99;99.76;52541.84;5029306;28;21257;-72
2020/12/05 09:05:13;;;;;;;46.33;26.60;;;;;;;-144.99;99.62;52531.66;5028480;28;21004;-71
2020/12/05 09:07:39;;;;;;;42.00;28.03;;;;;;;-144.99;99.53;52550.00;5027410;28;20723;-71
2020/12/05 09:10:14;;;;;;;46.63;29.20;;;;;;;-144.99;99.60;52529.63;5027592;28;20740;-70
2020/12/05 09:12:41;;;;;;;40.57;28.50;;;;;;;-144.99;99.71;52509.25;5033643;28;20639;-70
2020/12/05 09:15:07;;;;;;;42.57;28.10;;;;;;;-144.99;99.41;52550.00;5029683;28;20679;-71
2020/12/05 09:17:34;;;;;;;44.10;28.43;;;;;;;-144.99;99.48;52521.47;5028966;28;21300;-71
2020/12/05 09:20:13;;;;;;;44.97;29.13;;;;;;;-144.99;99.10;52562.25;5026536;28;20632;-69
2020/12/05 09:22:45;;;;;;;48.97;30.13;;;;;;;-144.99;99.01;52521.47;5017344;28;21010;-71
2020/12/05 09:25:12;;;;;;;39.97;29.30;;;;;;;-144.99;98.68;52519.44;5036731;28;21042;-71
2020/12/05 09:27:40;;;;;;;39.40;27.07;;;;;;;-144.99;98.48;52476.63;5031669;28;20724;-70
2020/12/05 09:30:08;;;;;;;41.10;27.67;;;;;;;-144.99;98.51;52547.97;5039147;28;20627;-71
2020/12/05 09:32:40;;;;;;;36.13;26.53;;;;;;;-144.99;97.93;52545.94;5030119;28;20624;-71
2020/12/05 09:35:07;;;;;;;43.33;29.00;;;;;;;-144.99;97.99;52509.25;5023439;28;21098;-70
2020/12/05 09:37:34;;;;;;;38.80;26.87;;;;;;;-144.99;97.91;52509.25;5029054;28;20657;-71
2020/12/05 09:40:01;;;;;;;41.23;30.13;;;;;;;-144.99;97.86;52521.47;5029438;28;21253;-71
2020/12/05 09:42:27;;;;;;;41.03;26.77;;;;;;;-144.99;97.99;52533.69;5029218;28;20716;-72
2020/12/05 09:44:53;;;;;;;41.33;28.73;;;;;;;-144.99;97.90;52533.69;5037581;28;21090;-71
2020/12/05 09:47:19;;;;;;;42.20;28.27;;;;;;;-144.99;98.09;52525.56;5033382;28;20673;-70
2020/12/05 09:49:46;;;;;;;49.83;30.13;;;;;;;-144.99;98.30;52586.69;5033693;28;20631;-70
2020/12/05 09:52:12;;;;;;;40.57;28.63;;;;;;;-144.99;98.16;52521.47;5051950;28;20662;-70
2020/12/05 09:54:39;;;;;;;44.33;29.77;;;;;;;-144.99;98.20;52521.47;5051358;28;20637;-71
2020/12/05 09:57:05;;;;;;;42.00;29.07;;;;;;;-144.99;98.59;52550.00;5029529;28;20716;-70
2020/12/05 09:59:32;;;;;;;37.43;26.20;;;;;;;-144.99;98.39;52527.59;5027569;28;20637;-70
2020/12/05 10:01:58;;;;;;;42.63;29.20;;;;;;;-144.99;98.44;52550.00;5044600;28;21184;-69
2020/12/05 10:04:24;;;;;;;47.43;29.13;;;;;;;-144.99;98.47;52554.09;5032110;28;20645;-70
2020/12/05 10:06:50;;;;;;;43.63;28.53;;;;;;;-144.99;98.36;52529.63;5048337;28;21281;-71
2020/12/05 10:09:16;;;;;;;46.10;27.63;;;;;;;-144.99;98.32;52513.31;5033878;28;20723;-70
2020/12/05 10:11:43;;;;;;;37.27;29.63;;;;;;;-144.99;98.54;52501.09;5035126;28;20675;-70
2020/12/05 10:14:09;;;;;;;39.77;28.77;;;;;;;-144.99;98.63;52497.00;5051836;28;20723;-70
2020/12/05 10:16:36;;;;;;;41.67;26.70;;;;;;;-144.99;98.67;52558.16;5039386;28;20901;-71
2020/12/05 10:19:02;;;;;;;44.77;29.30;;;;;;;-144.99;98.84;52517.41;5052133;28;20695;-70
2020/12/05 10:21:28;;;;;;;37.07;25.17;;;;;;;-144.99;98.91;52529.63;5045721;28;20730;-70
2020/12/05 10:23:54;;;;;;;39.80;27.30;;;;;;;-144.99;98.87;52517.41;5032894;28;20713;-71
2020/12/05 10:26:20;;;;;;;40.53;27.03;;;;;;;-144.99;98.95;52509.25;5035385;28;20648;-71
2020/12/05 10:28:47;;;;;;;36.40;27.60;;;;;;;-144.99;98.94;52550.00;5052003;28;20719;-71
2020/12/05 10:31:14;;;;;;;38.20;25.90;;;;;;;-144.99;98.94;52517.41;5035378;28;20710;-70
2020/12/05 10:33:40;;;;;;;36.47;26.90;;;;;;;-144.99;98.96;52521.47;5040355;28;20743;-71
2020/12/05 10:36:06;;;;;;;38.17;26.10;;;;;;;-144.99;98.18;52533.69;5031409;28;21145;-72
2020/12/05 10:38:32;;;;;;;35.90;23.97;;;;;;;-144.99;98.21;52517.41;5031928;28;20680;-70
2020/12/05 10:40:58;;;;;;;32.03;23.70;;;;;;;-144.99;97.87;52517.41;5030913;28;20715;-71
2020/12/05 10:43:24;;;;;;;37.30;26.63;;;;;;;-144.99;97.74;52497.00;5031037;28;20858;-71
2020/12/05 10:45:51;;;;;;;35.33;24.57;;;;;;;-144.99;97.18;52533.69;5030769;28;21069;-70
2020/12/05 10:48:17;;;;;;;38.90;23.70;;;;;;;-144.99;97.39;52541.84;5031504;28;20643;-71
2020/12/05 10:50:43;;;;;;;35.73;23.97;;;;;;;-144.99;97.58;52484.78;5031678;28;20657;-71
2020/12/05 10:53:10;;;;;;;36.33;26.00;;;;;;;-144.99;97.41;52480.72;5031038;28;20656;-70
2020/12/05 10:55:36;;;;;;;36.83;24.37;;;;;;;-144.99;97.67;52533.69;5030276;28;20736;-70
2020/12/05 10:58:02;;;;;;;27.80;19.73;;;;;;;-144.99;98.11;52537.78;5030991;28;20763;-70
2020/12/05 11:00:28;;;;;;;34.80;25.20;;;;;;;-144.99;98.45;52509.25;5029840;28;21267;-70
2020/12/05 11:02:55;;;;;;;33.47;22.70;;;;;;;-144.99;98.60;52521.47;5031031;28;20660;-70